sensor_id;sensor_type;location;lat;lon;timestamp;P1;durP1;ratioP1;P2;durP2;ratioP2
17449;SDS011;8842;51.244;7.102;2024-02-26T00:03:21;6.10;;;5.80;;
17449;SDS011;8842;51.244;7.102;2024-02-26T00:08:25;6.10;;;5.80;;
17449;SDS011;8842;51.244;7.102;2024-02-26T00:13:30;6.80;;;6.40;;
17449;SDS011;8842;51.244;7.102;2024-02-26T00:18:34;6.57;;;6.27;;
17449;SDS011;8842;51.244;7.102;2024-02-26T00:23:38;6.20;;;5.90;;
17449;SDS011;8842;51.244;7.102;2024-02-26T00:28:42;6.57;;;6.23;;
17449;SDS011;8842;51.244;7.102;2024-02-26T00:33:46;6.57;;;6.27;;
17449;SDS011;8842;51.244;7.102;2024-02-26T00:38:58;6.50;;;6.20;;
17449;SDS011;8842;51.244;7.102;2024-02-26T00:44:02;6.30;;;6.00;;
17449;SDS011;8842;51.244;7.102;2024-02-26T00:49:14;6.47;;;6.17;;
17449;SDS011;8842;51.244;7.102;2024-02-26T00:54:18;6.73;;;6.43;;
17449;SDS011;8842;51.244;7.102;2024-02-26T00:59:22;6.50;;;6.20;;
17449;SDS011;8842;51.244;7.102;2024-02-26T01:04:34;6.20;;;5.90;;
17449;SDS011;8842;51.244;7.102;2024-02-26T01:09:38;6.77;;;6.47;;
17449;SDS011;8842;51.244;7.102;2024-02-26T01:14:42;6.50;;;6.20;;
17449;SDS011;8842;51.244;7.102;2024-02-26T01:19:46;6.70;;;6.40;;
17449;SDS011;8842;51.244;7.102;2024-02-26T01:24:50;6.50;;;6.20;;
17449;SDS011;8842;51.244;7.102;2024-02-26T01:29:54;6.70;;;6.40;;
17449;SDS011;8842;51.244;7.102;2024-02-26T01:35:06;6.50;;;6.20;;
17449;SDS011;8842;51.244;7.102;2024-02-26T01:40:13;6.40;;;6.10;;
17449;SDS011;8842;51.244;7.102;2024-02-26T01:45:20;6.70;;;6.40;;
17449;SDS011;8842;51.244;7.102;2024-02-26T01:50:32;6.80;;;6.50;;
17449;SDS011;8842;51.244;7.102;2024-02-26T01:55:37;7.07;;;6.67;;
17449;SDS011;8842;51.244;7.102;2024-02-26T02:00:49;6.90;;;6.60;;
17449;SDS011;8842;51.244;7.102;2024-02-26T02:05:53;7.10;;;6.70;;
17449;SDS011;8842;51.244;7.102;2024-02-26T02:10:57;6.43;;;6.13;;
17449;SDS011;8842;51.244;7.102;2024-02-26T02:16:09;6.83;;;6.53;;
17449;SDS011;8842;51.244;7.102;2024-02-26T02:21:13;7.90;;;7.50;;
17449;SDS011;8842;51.244;7.102;2024-02-26T02:26:17;8.80;;;8.20;;
17449;SDS011;8842;51.244;7.102;2024-02-26T02:31:23;8.97;;;8.57;;
17449;SDS011;8842;51.244;7.102;2024-02-26T02:36:27;8.07;;;7.67;;
17449;SDS011;8842;51.244;7.102;2024-02-26T02:41:31;8.60;;;8.20;;
17449;SDS011;8842;51.244;7.102;2024-02-26T02:46:35;8.60;;;8.20;;
17449;SDS011;8842;51.244;7.102;2024-02-26T02:51:39;8.87;;;8.47;;
17449;SDS011;8842;51.244;7.102;2024-02-26T02:56:53;9.40;;;8.90;;
17449;SDS011;8842;51.244;7.102;2024-02-26T03:01:58;9.87;;;9.27;;
17449;SDS011;8842;51.244;7.102;2024-02-26T03:07:02;9.00;;;8.60;;
17449;SDS011;8842;51.244;7.102;2024-02-26T03:12:06;9.20;;;8.70;;
17449;SDS011;8842;51.244;7.102;2024-02-26T03:17:11;9.10;;;8.50;;
17449;SDS011;8842;51.244;7.102;2024-02-26T03:22:23;8.60;;;8.20;;
17449;SDS011;8842;51.244;7.102;2024-02-26T03:27:27;8.70;;;8.30;;
17449;SDS011;8842;51.244;7.102;2024-02-26T03:32:39;8.77;;;8.37;;
17449;SDS011;8842;51.244;7.102;2024-02-26T03:37:53;9.20;;;8.70;;
17449;SDS011;8842;51.244;7.102;2024-02-26T03:42:57;8.90;;;8.50;;
17449;SDS011;8842;51.244;7.102;2024-02-26T03:48:08;9.40;;;8.90;;
17449;SDS011;8842;51.244;7.102;2024-02-26T03:53:12;9.30;;;8.80;;
17449;SDS011;8842;51.244;7.102;2024-02-26T03:58:24;9.97;;;9.37;;
17449;SDS011;8842;51.244;7.102;2024-02-26T04:03:28;9.97;;;9.43;;
17449;SDS011;8842;51.244;7.102;2024-02-26T04:08:40;9.70;;;9.20;;
17449;SDS011;8842;51.244;7.102;2024-02-26T04:13:44;12.90;;;9.00;;
17449;SDS011;8842;51.244;7.102;2024-02-26T04:18:51;10.80;;;10.20;;
17449;SDS011;8842;51.244;7.102;2024-02-26T04:24:03;10.40;;;9.90;;
17449;SDS011;8842;51.244;7.102;2024-02-26T04:29:07;10.40;;;9.90;;
17449;SDS011;8842;51.244;7.102;2024-02-26T04:34:11;10.70;;;10.10;;
17449;SDS011;8842;51.244;7.102;2024-02-26T04:39:16;10.07;;;9.57;;
17449;SDS011;8842;51.244;7.102;2024-02-26T04:44:27;10.00;;;9.50;;
17449;SDS011;8842;51.244;7.102;2024-02-26T04:49:31;12.73;;;11.87;;
17449;SDS011;8842;51.244;7.102;2024-02-26T04:54:36;10.80;;;10.20;;
17449;SDS011;8842;51.244;7.102;2024-02-26T04:59:40;10.70;;;10.10;;
17449;SDS011;8842;51.244;7.102;2024-02-26T05:04:52;11.40;;;10.80;;
17449;SDS011;8842;51.244;7.102;2024-02-26T05:09:56;10.70;;;10.10;;
17449;SDS011;8842;51.244;7.102;2024-02-26T05:15:09;11.10;;;10.50;;
17449;SDS011;8842;51.244;7.102;2024-02-26T05:25:27;10.80;;;10.20;;
17449;SDS011;8842;51.244;7.102;2024-02-26T05:30:30;10.93;;;10.33;;
17449;SDS011;8842;51.244;7.102;2024-02-26T05:35:42;10.60;;;10.00;;
17449;SDS011;8842;51.244;7.102;2024-02-26T05:40:47;10.83;;;10.23;;
17449;SDS011;8842;51.244;7.102;2024-02-26T05:45:59;12.23;;;11.57;;
17449;SDS011;8842;51.244;7.102;2024-02-26T05:51:03;12.80;;;11.90;;
17449;SDS011;8842;51.244;7.102;2024-02-26T05:56:15;12.60;;;11.90;;
17449;SDS011;8842;51.244;7.102;2024-02-26T06:01:19;12.90;;;12.20;;
17449;SDS011;8842;51.244;7.102;2024-02-26T06:06:34;13.40;;;12.70;;
17449;SDS011;8842;51.244;7.102;2024-02-26T06:11:38;13.00;;;12.30;;
17449;SDS011;8842;51.244;7.102;2024-02-26T06:16:42;12.90;;;12.20;;
17449;SDS011;8842;51.244;7.102;2024-02-26T06:21:46;13.30;;;12.60;;
17449;SDS011;8842;51.244;7.102;2024-02-26T06:26:59;12.60;;;11.90;;
17449;SDS011;8842;51.244;7.102;2024-02-26T06:32:04;13.70;;;13.00;;
17449;SDS011;8842;51.244;7.102;2024-02-26T06:37:08;13.47;;;12.77;;
17449;SDS011;8842;51.244;7.102;2024-02-26T06:42:20;14.00;;;13.10;;
17449;SDS011;8842;51.244;7.102;2024-02-26T06:47:24;13.70;;;13.00;;
17449;SDS011;8842;51.244;7.102;2024-02-26T06:52:29;13.90;;;13.20;;
17449;SDS011;8842;51.244;7.102;2024-02-26T06:57:33;14.20;;;13.50;;
17449;SDS011;8842;51.244;7.102;2024-02-26T07:02:37;14.60;;;13.80;;
17449;SDS011;8842;51.244;7.102;2024-02-26T07:07:41;14.23;;;13.43;;
17449;SDS011;8842;51.244;7.102;2024-02-26T07:12:55;14.70;;;13.90;;
17449;SDS011;8842;51.244;7.102;2024-02-26T07:18:00;14.70;;;13.90;;
17449;SDS011;8842;51.244;7.102;2024-02-26T07:23:11;15.77;;;14.73;;
17449;SDS011;8842;51.244;7.102;2024-02-26T07:28:16;16.57;;;15.67;;
17449;SDS011;8842;51.244;7.102;2024-02-26T07:33:27;15.73;;;14.87;;
17449;SDS011;8842;51.244;7.102;2024-02-26T07:38:31;16.10;;;15.20;;
17449;SDS011;8842;51.244;7.102;2024-02-26T07:43:46;16.10;;;15.20;;
17449;SDS011;8842;51.244;7.102;2024-02-26T07:48:51;15.93;;;15.13;;
17449;SDS011;8842;51.244;7.102;2024-02-26T07:54:05;16.40;;;15.50;;
17449;SDS011;8842;51.244;7.102;2024-02-26T08:04:20;15.93;;;15.03;;
17449;SDS011;8842;51.244;7.102;2024-02-26T08:09:24;15.80;;;14.97;;
17449;SDS011;8842;51.244;7.102;2024-02-26T08:14:39;15.90;;;15.00;;
17449;SDS011;8842;51.244;7.102;2024-02-26T08:19:43;15.70;;;14.80;;
17449;SDS011;8842;51.244;7.102;2024-02-26T08:24:47;15.40;;;14.60;;
17449;SDS011;8842;51.244;7.102;2024-02-26T08:29:52;15.13;;;14.33;;
17449;SDS011;8842;51.244;7.102;2024-02-26T08:35:06;15.90;;;15.10;;
17449;SDS011;8842;51.244;7.102;2024-02-26T08:40:11;15.47;;;14.67;;
17449;SDS011;8842;51.244;7.102;2024-02-26T08:45:25;15.97;;;15.17;;
17449;SDS011;8842;51.244;7.102;2024-02-26T08:50:30;15.80;;;15.00;;
17449;SDS011;8842;51.244;7.102;2024-02-26T08:55:34;16.03;;;15.13;;
17449;SDS011;8842;51.244;7.102;2024-02-26T09:00:38;15.67;;;14.87;;
17449;SDS011;8842;51.244;7.102;2024-02-26T09:05:42;15.70;;;14.90;;
17449;SDS011;8842;51.244;7.102;2024-02-26T09:10:56;15.50;;;14.70;;
17449;SDS011;8842;51.244;7.102;2024-02-26T09:16:00;15.30;;;14.50;;
17449;SDS011;8842;51.244;7.102;2024-02-26T09:21:05;15.30;;;14.50;;
17449;SDS011;8842;51.244;7.102;2024-02-26T09:26:20;15.27;;;14.47;;
17449;SDS011;8842;51.244;7.102;2024-02-26T09:31:25;15.23;;;14.43;;
17449;SDS011;8842;51.244;7.102;2024-02-26T09:36:29;14.90;;;14.10;;
17449;SDS011;8842;51.244;7.102;2024-02-26T09:41:33;15.30;;;14.50;;
17449;SDS011;8842;51.244;7.102;2024-02-26T09:46:37;15.20;;;14.40;;
17449;SDS011;8842;51.244;7.102;2024-02-26T09:51:41;14.87;;;14.07;;
17449;SDS011;8842;51.244;7.102;2024-02-26T09:56:56;15.00;;;14.20;;
17449;SDS011;8842;51.244;7.102;2024-02-26T10:02:03;15.00;;;14.20;;
17449;SDS011;8842;51.244;7.102;2024-02-26T10:07:15;15.30;;;14.50;;
17449;SDS011;8842;51.244;7.102;2024-02-26T10:12:19;14.53;;;13.73;;
17449;SDS011;8842;51.244;7.102;2024-02-26T10:17:23;14.80;;;14.00;;
17449;SDS011;8842;51.244;7.102;2024-02-26T10:22:29;14.43;;;13.63;;
17449;SDS011;8842;51.244;7.102;2024-02-26T10:27:34;14.50;;;13.70;;
17449;SDS011;8842;51.244;7.102;2024-02-26T10:37:51;14.53;;;13.73;;
17449;SDS011;8842;51.244;7.102;2024-02-26T10:42:55;14.80;;;14.00;;
17449;SDS011;8842;51.244;7.102;2024-02-26T10:48:08;14.33;;;13.63;;
17449;SDS011;8842;51.244;7.102;2024-02-26T10:53:16;14.37;;;13.67;;
17449;SDS011;8842;51.244;7.102;2024-02-26T10:58:28;14.80;;;14.00;;
17449;SDS011;8842;51.244;7.102;2024-02-26T11:03:34;13.10;;;12.40;;
17449;SDS011;8842;51.244;7.102;2024-02-26T11:08:49;12.63;;;11.93;;
17449;SDS011;8842;51.244;7.102;2024-02-26T11:13:53;13.87;;;13.17;;
17449;SDS011;8842;51.244;7.102;2024-02-26T11:19:08;13.50;;;12.80;;
17449;SDS011;8842;51.244;7.102;2024-02-26T11:24:15;13.13;;;12.43;;
17449;SDS011;8842;51.244;7.102;2024-02-26T11:29:21;13.63;;;12.93;;
17449;SDS011;8842;51.244;7.102;2024-02-26T11:34:26;12.50;;;11.90;;
17449;SDS011;8842;51.244;7.102;2024-02-26T11:39:39;12.47;;;11.87;;
17449;SDS011;8842;51.244;7.102;2024-02-26T11:44:44;12.20;;;11.60;;
17449;SDS011;8842;51.244;7.102;2024-02-26T11:49:48;13.00;;;12.30;;
17449;SDS011;8842;51.244;7.102;2024-02-26T11:55:03;12.10;;;11.50;;
17449;SDS011;8842;51.244;7.102;2024-02-26T12:00:11;13.20;;;12.50;;
17449;SDS011;8842;51.244;7.102;2024-02-26T12:05:27;13.13;;;12.43;;
17449;SDS011;8842;51.244;7.102;2024-02-26T12:10:41;13.20;;;12.50;;
17449;SDS011;8842;51.244;7.102;2024-02-26T12:15:55;13.33;;;12.63;;
17449;SDS011;8842;51.244;7.102;2024-02-26T12:21:08;12.83;;;12.13;;
17449;SDS011;8842;51.244;7.102;2024-02-26T12:26:15;13.17;;;12.47;;
17449;SDS011;8842;51.244;7.102;2024-02-26T12:31:29;13.60;;;12.90;;
17449;SDS011;8842;51.244;7.102;2024-02-26T12:36:34;12.67;;;12.07;;
17449;SDS011;8842;51.244;7.102;2024-02-26T12:41:45;13.10;;;12.40;;
17449;SDS011;8842;51.244;7.102;2024-02-26T12:46:56;13.07;;;12.37;;
17449;SDS011;8842;51.244;7.102;2024-02-26T12:52:06;12.67;;;12.00;;
17449;SDS011;8842;51.244;7.102;2024-02-26T12:57:10;13.50;;;12.80;;
17449;SDS011;8842;51.244;7.102;2024-02-26T13:02:24;13.27;;;12.57;;
17449;SDS011;8842;51.244;7.102;2024-02-26T13:07:29;13.77;;;12.90;;
17449;SDS011;8842;51.244;7.102;2024-02-26T13:12:44;12.63;;;12.03;;
17449;SDS011;8842;51.244;7.102;2024-02-26T13:17:49;13.60;;;12.90;;
17449;SDS011;8842;51.244;7.102;2024-02-26T13:23:01;13.20;;;12.50;;
17449;SDS011;8842;51.244;7.102;2024-02-26T13:28:09;13.03;;;12.33;;
17449;SDS011;8842;51.244;7.102;2024-02-26T13:33:21;11.60;;;11.00;;
17449;SDS011;8842;51.244;7.102;2024-02-26T13:38:26;12.40;;;11.80;;
17449;SDS011;8842;51.244;7.102;2024-02-26T13:43:38;12.50;;;11.80;;
17449;SDS011;8842;51.244;7.102;2024-02-26T13:48:42;12.23;;;11.63;;
17449;SDS011;8842;51.244;7.102;2024-02-26T13:53:56;13.10;;;12.40;;
17449;SDS011;8842;51.244;7.102;2024-02-26T13:59:00;13.50;;;12.80;;
17449;SDS011;8842;51.244;7.102;2024-02-26T14:04:12;13.20;;;12.50;;
17449;SDS011;8842;51.244;7.102;2024-02-26T14:09:16;12.67;;;12.03;;
17449;SDS011;8842;51.244;7.102;2024-02-26T14:14:28;12.53;;;11.93;;
17449;SDS011;8842;51.244;7.102;2024-02-26T14:19:34;12.40;;;11.80;;
17449;SDS011;8842;51.244;7.102;2024-02-26T14:24:47;13.70;;;13.00;;
17449;SDS011;8842;51.244;7.102;2024-02-26T14:29:53;13.10;;;12.40;;
17449;SDS011;8842;51.244;7.102;2024-02-26T14:35:06;13.43;;;12.73;;
17449;SDS011;8842;51.244;7.102;2024-02-26T14:40:12;12.50;;;11.90;;
17449;SDS011;8842;51.244;7.102;2024-02-26T14:45:16;12.20;;;11.60;;
17449;SDS011;8842;51.244;7.102;2024-02-26T14:50:20;12.47;;;11.87;;
17449;SDS011;8842;51.244;7.102;2024-02-26T14:55:32;13.10;;;12.40;;
17449;SDS011;8842;51.244;7.102;2024-02-26T15:00:37;13.30;;;12.60;;
17449;SDS011;8842;51.244;7.102;2024-02-26T15:05:42;14.20;;;13.50;;
17449;SDS011;8842;51.244;7.102;2024-02-26T15:10:47;12.47;;;11.87;;
17449;SDS011;8842;51.244;7.102;2024-02-26T15:15:59;12.30;;;11.70;;
17449;SDS011;8842;51.244;7.102;2024-02-26T15:21:03;12.20;;;11.60;;
17449;SDS011;8842;51.244;7.102;2024-02-26T15:26:15;11.90;;;11.30;;
17449;SDS011;8842;51.244;7.102;2024-02-26T15:31:20;11.73;;;11.13;;
17449;SDS011;8842;51.244;7.102;2024-02-26T15:36:24;11.50;;;10.90;;
17449;SDS011;8842;51.244;7.102;2024-02-26T15:41:29;12.67;;;12.03;;
17449;SDS011;8842;51.244;7.102;2024-02-26T15:46:33;11.87;;;11.27;;
17449;SDS011;8842;51.244;7.102;2024-02-26T15:56:50;11.70;;;11.10;;
17449;SDS011;8842;51.244;7.102;2024-02-26T16:07:05;11.97;;;11.37;;
17449;SDS011;8842;51.244;7.102;2024-02-26T16:12:14;10.40;;;9.90;;
17449;SDS011;8842;51.244;7.102;2024-02-26T16:17:28;8.70;;;8.30;;
17449;SDS011;8842;51.244;7.102;2024-02-26T16:22:34;7.03;;;6.73;;
17449;SDS011;8842;51.244;7.102;2024-02-26T16:27:39;6.10;;;5.80;;
17449;SDS011;8842;51.244;7.102;2024-02-26T16:32:51;6.20;;;5.90;;
17449;SDS011;8842;51.244;7.102;2024-02-26T16:37:55;6.50;;;6.20;;
17449;SDS011;8842;51.244;7.102;2024-02-26T16:43:06;6.10;;;5.80;;
17449;SDS011;8842;51.244;7.102;2024-02-26T16:48:11;5.73;;;5.53;;
17449;SDS011;8842;51.244;7.102;2024-02-26T16:53:23;6.30;;;6.00;;
17449;SDS011;8842;51.244;7.102;2024-02-26T16:58:27;6.17;;;5.87;;
17449;SDS011;8842;51.244;7.102;2024-02-26T17:03:31;5.50;;;5.30;;
17449;SDS011;8842;51.244;7.102;2024-02-26T17:08:35;4.70;;;4.50;;
17449;SDS011;8842;51.244;7.102;2024-02-26T17:13:47;5.53;;;5.27;;
17449;SDS011;8842;51.244;7.102;2024-02-26T17:18:51;5.43;;;5.23;;
17449;SDS011;8842;51.244;7.102;2024-02-26T17:23:55;5.30;;;5.10;;
17449;SDS011;8842;51.244;7.102;2024-02-26T17:29:01;5.70;;;5.50;;
17449;SDS011;8842;51.244;7.102;2024-02-26T17:34:06;5.60;;;5.40;;
17449;SDS011;8842;51.244;7.102;2024-02-26T17:39:11;5.53;;;5.33;;
17449;SDS011;8842;51.244;7.102;2024-02-26T17:44:15;4.90;;;4.70;;
17449;SDS011;8842;51.244;7.102;2024-02-26T17:49:21;4.60;;;4.40;;
17449;SDS011;8842;51.244;7.102;2024-02-26T17:54:26;5.70;;;5.50;;
17449;SDS011;8842;51.244;7.102;2024-02-26T17:59:31;4.50;;;4.30;;
17449;SDS011;8842;51.244;7.102;2024-02-26T18:04:35;4.80;;;4.60;;
17449;SDS011;8842;51.244;7.102;2024-02-26T18:09:39;4.90;;;4.70;;
17449;SDS011;8842;51.244;7.102;2024-02-26T18:14:43;4.90;;;4.70;;
17449;SDS011;8842;51.244;7.102;2024-02-26T18:19:47;5.47;;;5.23;;
17449;SDS011;8842;51.244;7.102;2024-02-26T18:24:52;5.50;;;5.30;;
17449;SDS011;8842;51.244;7.102;2024-02-26T18:29:56;5.80;;;5.60;;
17449;SDS011;8842;51.244;7.102;2024-02-26T18:35:00;5.70;;;5.50;;
17449;SDS011;8842;51.244;7.102;2024-02-26T18:40:06;5.50;;;5.30;;
17449;SDS011;8842;51.244;7.102;2024-02-26T18:45:12;5.33;;;5.03;;
17449;SDS011;8842;51.244;7.102;2024-02-26T18:50:24;5.40;;;5.20;;
17449;SDS011;8842;51.244;7.102;2024-02-26T18:55:28;5.60;;;5.40;;
17449;SDS011;8842;51.244;7.102;2024-02-26T19:00:32;5.20;;;5.00;;
17449;SDS011;8842;51.244;7.102;2024-02-26T19:05:36;5.60;;;5.40;;
17449;SDS011;8842;51.244;7.102;2024-02-26T19:10:41;5.50;;;5.30;;
17449;SDS011;8842;51.244;7.102;2024-02-26T19:15:45;5.60;;;5.40;;
17449;SDS011;8842;51.244;7.102;2024-02-26T19:20:49;5.60;;;5.40;;
17449;SDS011;8842;51.244;7.102;2024-02-26T19:25:53;4.90;;;4.70;;
17449;SDS011;8842;51.244;7.102;2024-02-26T19:30:57;5.27;;;5.07;;
17449;SDS011;8842;51.244;7.102;2024-02-26T19:36:01;5.20;;;5.00;;
17449;SDS011;8842;51.244;7.102;2024-02-26T19:41:06;5.10;;;4.90;;
17449;SDS011;8842;51.244;7.102;2024-02-26T19:46:10;5.27;;;5.07;;
17449;SDS011;8842;51.244;7.102;2024-02-26T19:51:15;5.30;;;5.10;;
17449;SDS011;8842;51.244;7.102;2024-02-26T19:56:19;5.43;;;5.23;;
17449;SDS011;8842;51.244;7.102;2024-02-26T20:01:24;5.70;;;5.40;;
17449;SDS011;8842;51.244;7.102;2024-02-26T20:06:37;5.40;;;5.20;;
17449;SDS011;8842;51.244;7.102;2024-02-26T20:11:42;5.93;;;5.63;;
17449;SDS011;8842;51.244;7.102;2024-02-26T20:16:47;5.83;;;5.53;;
17449;SDS011;8842;51.244;7.102;2024-02-26T20:27:02;5.60;;;5.40;;
17449;SDS011;8842;51.244;7.102;2024-02-26T20:32:07;5.40;;;5.20;;
17449;SDS011;8842;51.244;7.102;2024-02-26T20:37:19;5.33;;;5.13;;
17449;SDS011;8842;51.244;7.102;2024-02-26T20:42:24;5.50;;;5.30;;
17449;SDS011;8842;51.244;7.102;2024-02-26T20:47:28;6.43;;;5.93;;
17449;SDS011;8842;51.244;7.102;2024-02-26T20:52:33;5.90;;;5.60;;
17449;SDS011;8842;51.244;7.102;2024-02-26T20:57:37;5.53;;;5.33;;
17449;SDS011;8842;51.244;7.102;2024-02-26T21:02:41;6.10;;;5.80;;
17449;SDS011;8842;51.244;7.102;2024-02-26T21:07:46;5.60;;;5.40;;
17449;SDS011;8842;51.244;7.102;2024-02-26T21:12:50;5.77;;;5.53;;
17449;SDS011;8842;51.244;7.102;2024-02-26T21:17:54;5.60;;;5.40;;
17449;SDS011;8842;51.244;7.102;2024-02-26T21:22:58;5.80;;;5.60;;
17449;SDS011;8842;51.244;7.102;2024-02-26T21:28:03;6.23;;;5.67;;
17449;SDS011;8842;51.244;7.102;2024-02-26T21:33:08;5.57;;;5.37;;
17449;SDS011;8842;51.244;7.102;2024-02-26T21:38:20;6.00;;;5.70;;
17449;SDS011;8842;51.244;7.102;2024-02-26T21:43:24;5.50;;;5.30;;
17449;SDS011;8842;51.244;7.102;2024-02-26T21:48:28;5.73;;;5.47;;
17449;SDS011;8842;51.244;7.102;2024-02-26T21:58:43;5.90;;;5.60;;
17449;SDS011;8842;51.244;7.102;2024-02-26T22:03:47;5.70;;;5.50;;
17449;SDS011;8842;51.244;7.102;2024-02-26T22:08:59;5.90;;;5.60;;
17449;SDS011;8842;51.244;7.102;2024-02-26T22:19:14;5.40;;;5.20;;
17449;SDS011;8842;51.244;7.102;2024-02-26T22:24:20;6.00;;;5.70;;
17449;SDS011;8842;51.244;7.102;2024-02-26T22:29:32;5.50;;;5.30;;
17449;SDS011;8842;51.244;7.102;2024-02-26T22:34:44;5.43;;;5.23;;
17449;SDS011;8842;51.244;7.102;2024-02-26T22:39:48;5.60;;;5.40;;
17449;SDS011;8842;51.244;7.102;2024-02-26T22:44:52;5.67;;;5.47;;
17449;SDS011;8842;51.244;7.102;2024-02-26T22:50:05;6.30;;;6.00;;
17449;SDS011;8842;51.244;7.102;2024-02-26T22:55:11;5.50;;;5.30;;
17449;SDS011;8842;51.244;7.102;2024-02-26T23:00:23;5.50;;;5.30;;
17449;SDS011;8842;51.244;7.102;2024-02-26T23:05:31;5.90;;;5.60;;
17449;SDS011;8842;51.244;7.102;2024-02-26T23:10:45;5.80;;;5.60;;
17449;SDS011;8842;51.244;7.102;2024-02-26T23:15:49;6.00;;;5.70;;
17449;SDS011;8842;51.244;7.102;2024-02-26T23:20:55;6.43;;;6.13;;
17449;SDS011;8842;51.244;7.102;2024-02-26T23:26:07;6.50;;;6.20;;
17449;SDS011;8842;51.244;7.102;2024-02-26T23:31:11;6.50;;;6.20;;
17449;SDS011;8842;51.244;7.102;2024-02-26T23:36:15;6.50;;;6.20;;
17449;SDS011;8842;51.244;7.102;2024-02-26T23:41:20;6.80;;;6.50;;
17449;SDS011;8842;51.244;7.102;2024-02-26T23:46:24;7.20;;;6.80;;
17449;SDS011;8842;51.244;7.102;2024-02-26T23:51:30;8.00;;;7.60;;
17449;SDS011;8842;51.244;7.102;2024-02-26T23:56:45;9.20;;;8.37;;
